Time;durP1;ratioP1;P1;durP2;ratioP2;P2;SDS_P1;SDS_P2;PMS_P1;PMS_P2;Temp;Humidity;BMP_temperature;BMP_pressure;BME280_temperature;BME280_humidity;BME280_pressure;Samples;Min_cycle;Max_cycle;Signal;HPM_P1;HPM_P2
2023/08/23 00:00:12;;;;;;;7.38;4.15;;;17.50;99.90;;;;;;5042256;28;20136;-70
2023/08/23 00:02:37;;;;;;;8.52;5.25;;;17.50;99.90;;;;;;5023369;28;20099;-70
2023/08/23 00:05:03;;;;;;;10.27;5.40;;;17.40;99.90;;;;;;5022277;28;20079;-70
2023/08/23 00:07:29;;;;;;;11.55;5.00;;;17.40;99.90;;;;;;5013062;28;20432;-69
2023/08/23 00:09:55;;;;;;;11.23;5.38;;;17.40;99.90;;;;;;5024686;28;20040;-69
2023/08/23 00:12:20;;;;;;;9.15;5.15;;;17.50;99.90;;;;;;5021075;28;20060;-70
2023/08/23 00:14:46;;;;;;;11.18;4.95;;;17.40;99.90;;;;;;5021657;28;20075;-69
2023/08/23 00:17:12;;;;;;;8.95;4.50;;;17.40;99.90;;;;;;5039955;28;20194;-70
2023/08/23 00:19:37;;;;;;;6.45;4.60;;;17.40;99.90;;;;;;5023032;28;20563;-70
2023/08/23 00:22:03;;;;;;;6.57;4.65;;;17.30;99.90;;;;;;5029204;28;20109;-70
2023/08/23 00:24:29;;;;;;;8.55;5.50;;;17.20;99.90;;;;;;5038967;28;20102;-70
2023/08/23 00:26:55;;;;;;;9.48;4.95;;;17.30;99.90;;;;;;5039681;28;20494;-70
2023/08/23 00:29:21;;;;;;;8.23;5.15;;;17.30;99.90;;;;;;5039183;28;20052;-70
2023/08/23 00:31:46;;;;;;;9.32;4.97;;;17.20;99.90;;;;;;5028566;28;20049;-70
2023/08/23 00:34:12;;;;;;;8.02;5.25;;;17.20;99.90;;;;;;5022740;28;20422;-70
2023/08/23 00:36:38;;;;;;;11.80;4.70;;;17.20;99.90;;;;;;5017278;28;20414;-70
2023/08/23 00:39:03;;;;;;;9.65;5.22;;;17.20;99.90;;;;;;5021727;28;20491;-70
2023/08/23 00:41:29;;;;;;;9.50;5.18;;;17.20;99.90;;;;;;5023490;28;20102;-70
2023/08/23 00:43:55;;;;;;;7.63;5.20;;;17.20;99.90;;;;;;5039903;28;20186;-70
2023/08/23 00:46:22;;;;;;;10.70;6.43;;;17.20;99.90;;;;;;5022468;28;20494;-70
2023/08/23 00:48:49;;;;;;;11.45;5.97;;;17.20;99.90;;;;;;5015956;28;20445;-70
2023/08/23 00:51:15;;;;;;;11.88;5.40;;;17.20;99.90;;;;;;5021785;28;20586;-70
2023/08/23 00:53:41;;;;;;;8.98;5.82;;;17.10;99.90;;;;;;5034682;28;20087;-70
2023/08/23 00:56:07;;;;;;;10.63;6.35;;;17.10;99.90;;;;;;5031744;28;20451;-70
2023/08/23 00:58:33;;;;;;;;;;;17.10;99.90;;;;;;5021870;28;20053;-70
2023/08/23 01:01:03;;;;;;;11.38;6.05;;;17.10;99.90;;;;;;5039294;28;20186;-71
2023/08/23 01:03:29;;;;;;;10.18;6.15;;;17.10;99.90;;;;;;5011231;28;20049;-70
2023/08/23 01:06:10;;;;;;;10.98;5.43;;;17.10;99.90;;;;;;5023486;28;20047;-69
2023/08/23 01:08:49;;;;;;;9.90;5.40;;;17.10;99.90;;;;;;5023216;28;20045;-70
2023/08/23 01:11:44;;;;;;;10.75;5.93;;;17.10;99.90;;;;;;5042819;28;20079;-70
2023/08/23 01:14:32;;;;;;;9.25;5.55;;;17.10;99.90;;;;;;5033207;28;20045;-70
2023/08/23 01:17:00;;;;;;;9.80;6.07;;;17.10;99.90;;;;;;5020100;28;20124;-70
2023/08/23 01:19:42;;;;;;;11.40;6.10;;;17.10;99.90;;;;;;5023972;28;20132;-70
2023/08/23 01:22:12;;;;;;;9.98;5.78;;;17.00;99.90;;;;;;5019664;28;20063;-70
2023/08/23 01:24:38;;;;;;;9.93;5.47;;;17.00;99.90;;;;;;5022231;28;20052;-70
2023/08/23 01:27:04;;;;;;;10.02;5.25;;;16.90;99.90;;;;;;5041983;28;20406;-70
2023/08/23 01:29:30;;;;;;;8.77;4.57;;;16.90;99.90;;;;;;5022295;28;20045;-70
2023/08/23 01:32:10;;;;;;;8.73;4.65;;;16.90;99.90;;;;;;5023853;28;20064;-70
2023/08/23 01:34:40;;;;;;;7.00;4.40;;;16.80;99.90;;;;;;5021410;28;20045;-70
2023/08/23 01:37:08;;;;;;;8.43;5.03;;;16.70;99.90;;;;;;5042104;28;20041;-70
2023/08/23 01:39:36;;;;;;;6.63;4.38;;;16.70;99.90;;;;;;5017472;28;20407;-70
2023/08/23 01:42:02;;;;;;;7.35;4.78;;;16.70;99.90;;;;;;5019410;28;20495;-70
2023/08/23 01:44:27;;;;;;;;;;;16.70;99.90;;;;;;5040002;28;20348;-74
2023/08/23 01:46:53;;;;;;;9.88;5.38;;;16.70;99.90;;;;;;5021131;28;19936;-70
2023/08/23 01:49:19;;;;;;;8.13;5.25;;;16.60;99.90;;;;;;5016757;28;20037;-70
2023/08/23 01:51:44;;;;;;;8.10;4.47;;;16.60;99.90;;;;;;5040203;28;20045;-70
2023/08/23 01:54:10;;;;;;;9.90;4.97;;;16.50;99.90;;;;;;5022363;28;20084;-70
2023/08/23 01:56:36;;;;;;;6.32;4.25;;;16.50;99.90;;;;;;5051030;28;20044;-70
2023/08/23 01:59:02;;;;;;;6.57;3.97;;;16.50;99.90;;;;;;5053161;28;20048;-70
2023/08/23 02:01:27;;;;;;;6.90;4.57;;;16.50;99.90;;;;;;5044204;28;20041;-70
2023/08/23 02:03:53;;;;;;;6.38;4.47;;;16.40;99.90;;;;;;5026817;28;20152;-70
2023/08/23 02:06:19;;;;;;;9.02;5.30;;;16.40;99.90;;;;;;5025014;28;20184;-70
2023/08/23 02:08:45;;;;;;;9.85;5.70;;;16.40;99.90;;;;;;5023885;28;20124;-70
2023/08/23 02:11:10;;;;;;;10.52;6.15;;;16.30;99.90;;;;;;5030546;28;20045;-69
2023/08/23 02:13:36;;;;;;;12.13;5.80;;;16.30;99.90;;;;;;5035717;28;20478;-69
2023/08/23 02:16:02;;;;;;;11.68;5.30;;;16.30;99.90;;;;;;5024223;28;20045;-70
2023/08/23 02:18:27;;;;;;;9.20;5.20;;;16.30;99.90;;;;;;5026326;28;20052;-70
2023/08/23 02:20:59;;;;;;;12.52;6.63;;;16.30;99.90;;;;;;5045524;28;20065;-70
2023/08/23 02:23:25;;;;;;;13.13;6.97;;;16.30;99.90;;;;;;5029600;28;20037;-70
2023/08/23 02:25:51;;;;;;;;;;;16.20;99.90;;;;;;5042668;28;20517;-70
2023/08/23 02:28:19;;;;;;;10.32;6.43;;;16.20;99.90;;;;;;5029698;28;19916;-70
2023/08/23 02:30:44;;;;;;;8.63;5.00;;;16.20;99.90;;;;;;5031173;28;20072;-70
2023/08/23 02:33:10;;;;;;;8.43;4.95;;;16.20;99.90;;;;;;5027439;28;20042;-70
2023/08/23 02:35:41;;;;;;;9.52;5.82;;;16.20;99.90;;;;;;5033383;28;20048;-70
2023/08/23 02:38:08;;;;;;;8.85;5.53;;;16.20;99.90;;;;;;5040785;28;20113;-70
2023/08/23 02:40:34;;;;;;;8.57;5.20;;;16.20;99.90;;;;;;5028626;28;20101;-70
2023/08/23 02:43:02;;;;;;;;;;;16.20;99.90;;;;;;5045157;28;20664;-70
2023/08/23 02:45:27;;;;;;;9.07;5.30;;;16.20;99.90;;;;;;5044233;28;19921;-70
2023/08/23 02:47:53;;;;;;;9.43;5.88;;;16.20;99.90;;;;;;5043364;28;20048;-70
2023/08/23 02:50:19;;;;;;;11.57;5.50;;;16.20;99.90;;;;;;5025896;28;20053;-70
2023/08/23 02:52:44;;;;;;;7.90;4.75;;;16.20;99.90;;;;;;5043149;28;20043;-70
2023/08/23 02:55:10;;;;;;;9.25;5.55;;;16.20;99.90;;;;;;5039976;28;20045;-70
2023/08/23 02:57:36;;;;;;;8.30;5.22;;;16.20;99.90;;;;;;5044890;28;20052;-70
2023/08/23 03:00:01;;;;;;;9.43;5.15;;;16.20;99.90;;;;;;5023265;28;20055;-70
2023/08/23 03:02:27;;;;;;;8.52;5.53;;;16.20;99.90;;;;;;5026384;28;20571;-70
2023/08/23 03:04:52;;;;;;;8.65;4.90;;;16.20;99.90;;;;;;5026456;28;20040;-70
2023/08/23 03:07:21;;;;;;;7.78;4.85;;;16.30;99.90;;;;;;5027097;28;20467;-70
2023/08/23 03:09:49;;;;;;;7.88;4.78;;;16.30;99.90;;;;;;5038531;28;20574;-70
2023/08/23 03:12:15;;;;;;;8.68;5.20;;;16.30;99.90;;;;;;5026799;28;20179;-70
2023/08/23 03:14:41;;;;;;;9.32;5.40;;;16.30;99.90;;;;;;5021513;28;20072;-70
2023/08/23 03:17:07;;;;;;;9.65;5.32;;;16.30;99.90;;;;;;5039832;28;20060;-70
2023/08/23 03:19:36;;;;;;;7.20;4.57;;;16.30;99.90;;;;;;5031950;28;20048;-70
2023/08/23 03:22:02;;;;;;;8.35;5.20;;;16.30;99.90;;;;;;5035044;28;20565;-70
2023/08/23 03:24:28;;;;;;;8.00;4.85;;;16.30;99.90;;;;;;5022421;28;20155;-70
2023/08/23 03:26:53;;;;;;;9.73;5.60;;;16.30;99.90;;;;;;5041183;28;20077;-70
2023/08/23 03:29:19;;;;;;;10.50;5.45;;;16.30;99.90;;;;;;5021281;28;20044;-70
2023/08/23 03:31:45;;;;;;;8.20;4.95;;;16.30;99.90;;;;;;5028567;28;20041;-70
2023/08/23 03:34:10;;;;;;;10.32;5.93;;;16.30;99.90;;;;;;5031788;28;20039;-70
2023/08/23 03:36:36;;;;;;;9.50;5.45;;;16.30;99.90;;;;;;5046056;28;20435;-70
2023/08/23 03:39:03;;;;;;;9.85;5.28;;;16.30;99.90;;;;;;5030931;28;20047;-70
2023/08/23 03:41:28;;;;;;;9.57;5.60;;;16.30;99.90;;;;;;5022371;28;20060;-70
2023/08/23 03:43:54;;;;;;;9.68;5.75;;;16.20;99.90;;;;;;5038840;28;20045;-70
2023/08/23 03:46:23;;;;;;;7.70;5.43;;;16.30;99.90;;;;;;5044046;28;20503;-70
2023/08/23 03:48:49;;;;;;;7.85;5.65;;;16.30;99.90;;;;;;5036809;28;20048;-70
2023/08/23 03:51:17;;;;;;;8.60;5.53;;;16.30;99.90;;;;;;5023755;28;20063;-70
2023/08/23 03:53:46;;;;;;;8.63;5.72;;;16.30;99.90;;;;;;5037923;28;20128;-70
2023/08/23 03:56:11;;;;;;;11.15;6.07;;;16.30;99.90;;;;;;5023880;28;20045;-70
2023/08/23 03:58:37;;;;;;;11.13;6.43;;;16.30;99.90;;;;;;5028414;28;20051;-70
2023/08/23 04:01:05;;;;;;;10.68;6.20;;;16.30;99.90;;;;;;5025558;28;20094;-70
2023/08/23 04:03:31;;;;;;;10.93;6.13;;;16.40;99.90;;;;;;5051032;28;20080;-70
2023/08/23 04:05:57;;;;;;;11.30;6.20;;;16.30;99.90;;;;;;5027653;28;20233;-70
2023/08/23 04:08:22;;;;;;;12.27;6.38;;;16.30;99.90;;;;;;5028408;28;20529;-70
2023/08/23 04:10:49;;;;;;;13.20;7.07;;;16.30;99.90;;;;;;5031526;28;20095;-70
2023/08/23 04:13:15;;;;;;;10.75;6.40;;;16.40;99.90;;;;;;5006634;28;20104;-70
2023/08/23 04:15:43;;;;;;;10.65;6.45;;;16.40;99.90;;;;;;5009712;28;20099;-69
2023/08/23 04:18:09;;;;;;;13.23;7.68;;;16.40;99.90;;;;;;5031003;28;20049;-69
2023/08/23 04:20:37;;;;;;;14.65;7.22;;;16.40;99.90;;;;;;5041599;28;21466;-70
2023/08/23 04:23:03;;;;;;;13.77;7.35;;;16.40;99.90;;;;;;5039075;28;20048;-70
2023/08/23 04:25:29;;;;;;;14.48;7.47;;;16.40;99.90;;;;;;5037767;28;20068;-70
2023/08/23 04:27:55;;;;;;;13.82;7.72;;;16.40;99.90;;;;;;5021284;28;20072;-70
2023/08/23 04:30:20;;;;;;;13.88;7.35;;;16.40;99.90;;;;;;5023627;28;20525;-70
2023/08/23 04:32:46;;;;;;;13.93;7.25;;;16.40;99.90;;;;;;5027536;28;20037;-70
2023/08/23 04:35:11;;;;;;;11.65;7.00;;;16.40;99.90;;;;;;5042636;28;20056;-70
2023/08/23 04:37:37;;;;;;;15.02;8.18;;;16.40;99.90;;;;;;5044260;28;20173;-70
2023/08/23 04:40:06;;;;;;;12.63;8.05;;;16.50;99.90;;;;;;5025165;28;20064;-70
2023/08/23 04:42:32;;;;;;;13.98;7.18;;;16.40;99.90;;;;;;5082532;22;20089;-68
2023/08/23 04:45:00;;;;;;;15.35;8.18;;;16.40;99.90;;;;;;5065402;28;20548;-69
2023/08/23 04:47:27;;;;;;;12.55;7.00;;;16.40;99.90;;;;;;5051990;28;20131;-69
2023/08/23 04:49:55;;;;;;;14.40;7.68;;;16.50;99.90;;;;;;5046142;28;20053;-69
2023/08/23 04:52:20;;;;;;;14.38;7.95;;;16.50;99.90;;;;;;5066165;28;20064;-69
2023/08/23 04:54:46;;;;;;;11.55;7.38;;;16.50;99.90;;;;;;5045888;28;20068;-73
2023/08/23 04:57:12;;;;;;;15.85;8.32;;;16.50;99.90;;;;;;5047933;28;20068;-69
2023/08/23 04:59:38;;;;;;;10.70;6.82;;;16.60;99.90;;;;;;5047189;28;20101;-68
2023/08/23 05:02:04;;;;;;;16.02;7.50;;;16.60;99.90;;;;;;5065685;28;20383;-69
2023/08/23 05:04:29;;;;;;;11.65;7.20;;;16.60;99.90;;;;;;5051048;28;20044;-69
2023/08/23 05:06:55;;;;;;;11.73;7.25;;;16.60;99.90;;;;;;5065241;28;20573;-69
2023/08/23 05:09:21;;;;;;;14.50;8.35;;;16.50;99.90;;;;;;5066225;28;20051;-69
2023/08/23 05:11:47;;;;;;;13.20;7.97;;;16.60;99.90;;;;;;5048060;28;20493;-68
2023/08/23 05:14:13;;;;;;;12.70;7.13;;;16.60;99.90;;;;;;5058086;28;20628;-68
2023/08/23 05:16:38;;;;;;;14.40;7.82;;;16.50;99.90;;;;;;5027662;28;20040;-69
2023/08/23 05:19:04;;;;;;;16.63;8.15;;;16.50;99.90;;;;;;5050026;28;20032;-68
2023/08/23 05:21:30;;;;;;;12.25;7.85;;;16.50;99.90;;;;;;5065220;28;20051;-69
2023/08/23 05:23:55;;;;;;;14.80;8.27;;;16.50;99.90;;;;;;5039198;28;20132;-69
2023/08/23 05:26:21;;;;;;;14.75;7.88;;;16.50;99.90;;;;;;5043619;28;20146;-68
2023/08/23 05:28:47;;;;;;;15.52;8.82;;;16.50;99.90;;;;;;5048776;28;20028;-68
2023/08/23 05:31:14;;;;;;;15.02;7.75;;;16.50;99.90;;;;;;5066072;28;20502;-68
2023/08/23 05:33:42;;;;;;;16.60;8.77;;;16.50;99.90;;;;;;5056612;28;20052;-67
2023/08/23 05:36:12;;;;;;;12.63;7.57;;;16.50;99.90;;;;;;5056086;28;20036;-68
2023/08/23 05:38:38;;;;;;;13.23;7.95;;;16.50;99.90;;;;;;5052995;28;20097;-69
2023/08/23 05:41:04;;;;;;;14.75;8.00;;;16.50;99.90;;;;;;5067502;28;20291;-69
2023/08/23 05:43:30;;;;;;;13.38;8.18;;;16.50;99.90;;;;;;5063889;28;20083;-68
2023/08/23 05:45:56;;;;;;;12.27;8.52;;;16.40;99.90;;;;;;5056042;28;20040;-71
2023/08/23 05:48:22;;;;;;;12.77;7.95;;;16.50;99.90;;;;;;5050249;28;20052;-72
2023/08/23 05:50:48;;;;;;;14.02;8.18;;;16.50;99.90;;;;;;5058600;28;20040;-67
2023/08/23 05:53:19;;;;;;;17.48;8.45;;;16.40;99.90;;;;;;5053913;28;20408;-70
2023/08/23 05:55:49;;;;;;;15.13;8.38;;;16.50;99.90;;;;;;5063469;28;20191;-68
2023/08/23 05:58:18;;;;;;;14.15;8.68;;;16.50;99.90;;;;;;5051238;28;20075;-68
2023/08/23 06:00:45;;;;;;;13.32;8.10;;;16.50;99.90;;;;;;5049268;28;20124;-68
2023/08/23 06:03:14;;;;;;;14.55;7.90;;;16.60;99.90;;;;;;5045485;28;20052;-68
2023/08/23 06:05:41;;;;;;;14.60;8.20;;;16.60;99.90;;;;;;5047054;28;20051;-68
2023/08/23 06:08:08;;;;;;;12.95;8.18;;;16.70;99.90;;;;;;5054480;28;20435;-68
2023/08/23 06:10:33;;;;;;;16.17;8.77;;;16.70;99.90;;;;;;5047536;28;20072;-68
2023/08/23 06:12:59;;;;;;;13.13;8.68;;;16.70;99.90;;;;;;5039801;28;20478;-68
2023/08/23 06:15:25;;;;;;;12.85;7.97;;;16.80;99.90;;;;;;5050679;28;20051;-68
2023/08/23 06:17:53;;;;;;;;;;;16.80;99.90;;;;;;5049079;28;20076;-69
2023/08/23 06:20:19;;;;;;;14.88;8.57;;;16.90;99.90;;;;;;5068278;28;20297;-68
2023/08/23 06:22:44;;;;;;;;;;;16.90;99.90;;;;;;5052394;28;20055;-68
2023/08/23 06:25:12;;;;;;;16.05;8.43;;;17.00;99.90;;;;;;5047405;28;19916;-68
2023/08/23 06:27:38;;;;;;;16.08;8.07;;;17.00;99.90;;;;;;5050253;28;20079;-68
2023/08/23 06:30:05;;;;;;;15.43;8.20;;;17.10;99.90;;;;;;5039666;28;20072;-68
2023/08/23 06:32:31;;;;;;;13.15;8.00;;;17.20;99.90;;;;;;5033169;28;20059;-68
2023/08/23 06:34:56;;;;;;;14.95;8.88;;;17.30;99.90;;;;;;5051351;28;20040;-68
2023/08/23 06:37:22;;;;;;;12.52;8.05;;;17.40;99.90;;;;;;5049596;28;20052;-69
2023/08/23 06:39:49;;;;;;;14.43;8.30;;;17.50;99.90;;;;;;5050236;28;20070;-68
2023/08/23 06:42:17;;;;;;;12.15;7.30;;;17.50;99.90;;;;;;5047816;28;20131;-68
2023/08/23 06:44:45;;;;;;;11.25;7.30;;;17.60;99.90;;;;;;5033110;28;20076;-68
2023/08/23 06:47:11;;;;;;;16.98;8.38;;;17.70;99.90;;;;;;5045261;28;20389;-68
2023/08/23 06:49:39;;;;;;;14.50;8.57;;;17.80;99.90;;;;;;5068256;28;20128;-68
2023/08/23 06:52:05;;;;;;;14.75;8.93;;;17.90;99.90;;;;;;5041585;28;20051;-68
2023/08/23 06:54:30;;;;;;;13.18;8.07;;;18.00;99.90;;;;;;5033261;28;20037;-68
2023/08/23 06:56:56;;;;;;;13.25;8.82;;;18.10;99.90;;;;;;5048992;28;20524;-68
2023/08/23 06:59:22;;;;;;;14.15;8.65;;;18.10;99.90;;;;;;5048752;28;20040;-68
2023/08/23 07:01:47;;;;;;;12.57;7.82;;;18.20;99.90;;;;;;5043531;28;20484;-68
2023/08/23 07:04:13;;;;;;;13.80;8.20;;;18.30;99.90;;;;;;5049847;28;20044;-68
2023/08/23 07:06:39;;;;;;;12.50;7.15;;;18.40;99.90;;;;;;5042038;28;20517;-68
2023/08/23 07:09:06;;;;;;;12.88;7.90;;;18.40;99.90;;;;;;5046974;28;20110;-68
2023/08/23 07:11:31;;;;;;;16.13;7.72;;;18.40;99.90;;;;;;5064349;28;20052;-68
2023/08/23 07:13:57;;;;;;;15.15;8.38;;;18.50;99.90;;;;;;5049937;28;20086;-68
2023/08/23 07:16:23;;;;;;;12.30;7.95;;;18.50;99.90;;;;;;5045502;28;20315;-69
2023/08/23 07:18:48;;;;;;;14.40;8.00;;;18.50;99.90;;;;;;5034411;28;20059;-68
2023/08/23 07:21:15;;;;;;;15.32;8.55;;;18.50;99.90;;;;;;5046647;28;20131;-68
2023/08/23 07:23:41;;;;;;;14.27;8.18;;;18.60;99.90;;;;;;5039946;28;20459;-68
2023/08/23 07:26:06;;;;;;;14.30;8.00;;;18.70;99.90;;;;;;5059471;28;20051;-68
2023/08/23 07:28:32;;;;;;;13.20;8.38;;;18.70;99.90;;;;;;5064293;28;20087;-68
2023/08/23 07:30:58;;;;;;;12.45;8.35;;;18.80;99.90;;;;;;5046307;28;20052;-68
2023/08/23 07:33:25;;;;;;;12.55;7.43;;;18.80;99.90;;;;;;5048763;28;20052;-68
2023/08/23 07:36:00;;;;;;;12.70;7.97;;;18.90;99.90;;;;;;5041111;28;20053;-68
2023/08/23 07:38:26;;;;;;;19.33;8.52;;;18.90;99.90;;;;;;5042450;28;20135;-69
2023/08/23 07:40:57;;;;;;;15.43;8.05;;;18.90;99.90;;;;;;5040562;28;20528;-68
2023/08/23 07:43:23;;;;;;;12.05;7.70;;;19.00;99.90;;;;;;5052210;28;20051;-68
2023/08/23 07:45:53;;;;;;;;;;;19.00;99.90;;;;;;5030650;28;20540;-69
2023/08/23 07:48:19;;;;;;;13.05;7.60;;;19.10;99.90;;;;;;5035297;28;19956;-68
2023/08/23 07:50:51;;;;;;;14.80;7.68;;;19.10;99.90;;;;;;5031132;28;20081;-68
2023/08/23 07:53:17;;;;;;;13.70;9.15;;;19.20;99.90;;;;;;5040797;28;20382;-69
2023/08/23 07:55:42;;;;;;;16.50;7.53;;;19.20;99.90;;;;;;5037018;28;20037;-68
2023/08/23 07:58:09;;;;;;;16.38;8.95;;;19.20;99.90;;;;;;5028117;28;20062;-68
2023/08/23 08:00:35;;;;;;;15.73;9.65;;;19.40;99.90;;;;;;5050368;28;20101;-68
2023/08/23 08:03:02;;;;;;;16.38;8.77;;;19.40;99.90;;;;;;5048294;28;20040;-68
2023/08/23 08:05:28;;;;;;;17.42;9.73;;;19.50;99.90;;;;;;5051337;28;20063;-68
2023/08/23 08:07:54;;;;;;;19.85;9.20;;;19.50;99.90;;;;;;5029559;28;20048;-69
2023/08/23 08:10:20;;;;;;;15.52;8.82;;;19.50;99.90;;;;;;5047679;28;20052;-68
2023/08/23 08:12:45;;;;;;;;;;;19.60;99.90;;;;;;5047211;28;20046;-68
2023/08/23 08:15:11;;;;;;;16.58;8.75;;;19.70;99.90;;;;;;5065866;28;19998;-68
2023/08/23 08:17:37;;;;;;;13.98;8.50;;;19.70;99.90;;;;;;5049322;28;20142;-68
2023/08/23 08:20:05;;;;;;;19.15;8.60;;;19.80;99.90;;;;;;5032024;28;20044;-72
2023/08/23 08:22:31;;;;;;;16.38;9.85;;;19.90;99.90;;;;;;5042382;28;20044;-72
2023/08/23 08:24:57;;;;;;;13.40;9.05;;;20.00;99.90;;;;;;5068043;28;20054;-72
2023/08/23 08:27:23;;;;;;;14.05;8.35;;;20.10;99.90;;;;;;5048745;28;20077;-72
2023/08/23 08:29:49;;;;;;;14.55;9.25;;;20.10;99.90;;;;;;5044890;28;20778;-72
2023/08/23 08:32:15;;;;;;;;;;;20.30;99.90;;;;;;5044445;28;20131;-72
2023/08/23 08:34:40;;;;;;;12.52;7.53;;;20.30;99.90;;;;;;5055253;28;20145;-70
2023/08/23 08:37:06;;;;;;;14.35;8.48;;;20.50;99.90;;;;;;5044229;28;20044;-70
2023/08/23 08:39:32;;;;;;;11.85;8.10;;;20.50;99.90;;;;;;5049992;28;20124;-71
2023/08/23 08:41:59;;;;;;;13.98;7.80;;;20.50;99.90;;;;;;5043308;28;20050;-70
2023/08/23 08:44:25;;;;;;;15.70;8.18;;;20.60;99.90;;;;;;5042201;28;22301;-70
2023/08/23 08:46:51;;;;;;;11.88;8.55;;;20.70;99.90;;;;;;5045087;28;20531;-70
2023/08/23 08:49:17;;;;;;;;;;;20.80;99.90;;;;;;5048107;28;20048;-69
2023/08/23 08:51:46;;;;;;;18.50;9.15;;;20.90;99.90;;;;;;5046619;28;19916;-70
2023/08/23 08:54:16;;;;;;;13.38;8.52;;;21.00;99.90;;;;;;5028796;28;20113;-70
2023/08/23 08:56:46;;;;;;;14.90;8.00;;;21.00;99.90;;;;;;5043122;28;20044;-71
2023/08/23 08:59:12;;;;;;;10.23;7.32;;;21.20;99.90;;;;;;5047665;28;20451;-71
2023/08/23 09:01:39;;;;;;;15.07;8.60;;;21.30;99.90;;;;;;5055149;28;20311;-71
2023/08/23 09:04:05;;;;;;;13.93;7.65;;;21.40;99.90;;;;;;5057316;28;20044;-70
2023/08/23 09:06:32;;;;;;;12.43;8.48;;;21.50;99.90;;;;;;5048485;28;20040;-69
2023/08/23 09:09:00;;;;;;;16.15;8.60;;;21.60;99.90;;;;;;5049098;28;20041;-69
2023/08/23 09:11:26;;;;;;;14.27;8.13;;;21.60;99.90;;;;;;5070032;28;20040;-70
2023/08/23 09:13:52;;;;;;;;;;;21.70;99.90;;;;;;5046653;28;20063;-70
2023/08/23 09:16:17;;;;;;;12.48;8.00;;;21.80;99.90;;;;;;5044675;28;19916;-70
2023/08/23 09:18:44;;;;;;;14.10;8.20;;;21.80;99.90;;;;;;5050904;28;20032;-70
2023/08/23 09:21:12;;;;;;;13.23;7.25;;;22.00;99.90;;;;;;5052135;28;20123;-70
2023/08/23 09:23:38;;;;;;;14.57;7.90;;;22.10;99.90;;;;;;5036338;28;20425;-69
2023/08/23 09:26:05;;;;;;;;;;;22.20;99.90;;;;;;5052369;28;20093;-70
2023/08/23 09:28:31;;;;;;;;;;;22.20;99.90;;;;;;5038015;28;20384;-69
2023/08/23 09:31:00;;;;;;;14.77;7.00;;;22.20;99.90;;;;;;5052366;28;19920;-70
2023/08/23 09:33:27;;;;;;;12.80;7.70;;;22.30;99.90;;;;;;5051618;28;20114;-70
2023/08/23 09:35:56;;;;;;;11.57;6.90;;;22.40;99.90;;;;;;5041712;28;20172;-70
2023/08/23 09:38:22;;;;;;;8.90;6.10;;;22.40;99.90;;;;;;5039271;28;20123;-71
2023/08/23 09:40:48;;;;;;;;;;;22.40;99.90;;;;;;5042075;28;20037;-70
2023/08/23 09:43:17;;;;;;;8.57;4.57;;;22.30;99.90;;;;;;5058510;28;20128;-70
2023/08/23 09:45:44;;;;;;;7.93;3.97;;;22.30;99.90;;;;;;5050763;28;20045;-70
2023/08/23 09:48:11;;;;;;;10.07;5.22;;;22.30;99.90;;;;;;5068777;28;20085;-70
2023/08/23 09:50:37;;;;;;;8.50;3.80;;;22.30;99.90;;;;;;5065902;28;20059;-70
2023/08/23 09:53:05;;;;;;;9.60;4.57;;;22.30;99.90;;;;;;5051303;28;20080;-70
2023/08/23 09:55:33;;;;;;;6.65;4.10;;;22.40;99.90;;;;;;5048156;28;20506;-70
2023/08/23 09:58:00;;;;;;;12.82;4.00;;;22.30;99.90;;;;;;5034023;28;20044;-70
2023/08/23 10:00:29;;;;;;;6.25;4.15;;;22.30;99.90;;;;;;5048714;28;20399;-70
2023/08/23 10:02:58;;;;;;;12.27;3.42;;;22.30;99.90;;;;;;5049459;28;20098;-71
2023/08/23 10:05:25;;;;;;;7.45;3.97;;;22.30;99.90;;;;;;5054229;28;20387;-70
2023/08/23 10:07:56;;;;;;;9.20;4.40;;;22.50;99.90;;;;;;5048689;28;20629;-70
2023/08/23 10:10:22;;;;;;;5.90;3.03;;;22.60;99.90;;;;;;5045371;28;20044;-70
2023/08/23 10:12:50;;;;;;;;;;;22.80;99.90;;;;;;5050329;28;20416;-70
2023/08/23 10:15:18;;;;;;;7.10;3.75;;;22.90;99.90;;;;;;5046167;28;19979;-71
2023/08/23 10:17:46;;;;;;;8.50;4.20;;;23.10;99.90;;;;;;5051812;28;20060;-70
2023/08/23 10:20:12;;;;;;;9.23;3.35;;;23.20;99.90;;;;;;5049437;28;20049;-70
2023/08/23 10:22:39;;;;;;;;;;;23.30;99.90;;;;;;5053064;28;20462;-70
2023/08/23 10:25:19;;;;;;;7.20;3.78;;;23.40;99.90;;;;;;5050366;28;19920;-70
2023/08/23 10:27:47;;;;;;;6.38;4.28;;;23.60;99.90;;;;;;5053381;28;20056;-70
2023/08/23 10:30:27;;;;;;;8.15;3.53;;;23.60;99.90;;;;;;5051142;28;20149;-70
2023/08/23 10:33:08;;;;;;;9.55;3.65;;;23.50;99.90;;;;;;5050185;28;20131;-70
2023/08/23 10:35:35;;;;;;;7.55;3.05;;;23.50;99.90;;;;;;5053715;28;20044;-70
2023/08/23 10:38:06;;;;;;;10.05;3.95;;;23.50;99.90;;;;;;5047158;28;20511;-70
2023/08/23 10:40:33;;;;;;;7.10;4.30;;;23.60;99.90;;;;;;5070864;28;20063;-70
2023/08/23 10:43:03;;;;;;;6.80;3.95;;;23.70;99.90;;;;;;5049497;28;20040;-70
2023/08/23 10:45:47;;;;;;;10.68;3.88;;;23.70;99.90;;;;;;5067902;28;20032;-70
2023/08/23 10:48:13;;;;;;;9.90;3.95;;;23.70;99.90;;;;;;5063650;28;20044;-70
2023/08/23 10:50:39;;;;;;;7.97;3.47;;;23.80;99.90;;;;;;5048953;28;20079;-70
2023/08/23 10:53:05;;;;;;;6.82;3.17;;;24.00;99.90;;;;;;5052828;28;20068;-70
2023/08/23 10:55:31;;;;;;;5.90;3.15;;;24.10;99.90;;;;;;5049308;28;20107;-71
2023/08/23 10:57:56;;;;;;;5.43;3.00;;;24.20;99.90;;;;;;5048248;28;20328;-70
2023/08/23 11:00:22;;;;;;;7.68;2.83;;;24.30;99.90;;;;;;5044003;28;20044;-71
2023/08/23 11:02:48;;;;;;;4.88;2.28;;;24.40;99.90;;;;;;5047593;28;20082;-70
2023/08/23 11:05:14;;;;;;;5.50;2.20;;;24.50;99.90;;;;;;5052966;28;20189;-71
2023/08/23 11:07:40;;;;;;;8.50;2.58;;;24.50;99.90;;;;;;5061899;28;20394;-70
2023/08/23 11:10:08;;;;;;;7.05;3.38;;;24.50;99.90;;;;;;5050007;28;20040;-70
2023/08/23 11:12:38;;;;;;;4.93;2.53;;;24.60;99.90;;;;;;5046881;28;20055;-70
2023/08/23 11:15:04;;;;;;;4.82;2.83;;;24.60;99.90;;;;;;5048235;28;20044;-69
2023/08/23 11:17:30;;;;;;;7.07;2.75;;;24.60;99.90;;;;;;5043777;28;20041;-71
2023/08/23 11:19:56;;;;;;;10.90;2.38;;;24.60;99.90;;;;;;5049604;28;20406;-70
2023/08/23 11:22:24;;;;;;;6.00;2.47;;;24.70;99.90;;;;;;5046163;28;20131;-70
2023/08/23 11:24:50;;;;;;;5.43;2.60;;;24.70;99.90;;;;;;5062663;28;20130;-70
2023/08/23 11:27:16;;;;;;;5.05;2.10;;;24.50;99.90;;;;;;5067913;28;20494;-70
2023/08/23 11:29:45;;;;;;;4.40;2.55;;;24.30;99.90;;;;;;5049295;28;20044;-70
2023/08/23 11:32:12;;;;;;;5.38;2.42;;;24.10;99.90;;;;;;5031407;28;20459;-70
2023/08/23 11:34:38;;;;;;;7.32;2.90;;;24.10;99.90;;;;;;5043761;28;20045;-70
2023/08/23 11:37:08;;;;;;;6.85;2.58;;;24.30;99.90;;;;;;5045696;28;20438;-70
2023/08/23 11:39:34;;;;;;;5.60;1.98;;;24.40;99.90;;;;;;5027930;28;20124;-70
2023/08/23 11:42:00;;;;;;;4.05;2.10;;;24.50;99.90;;;;;;5048664;28;20489;-70
2023/08/23 11:44:28;;;;;;;5.80;2.22;;;24.60;99.90;;;;;;5058951;28;20158;-70
2023/08/23 11:46:57;;;;;;;6.30;1.95;;;24.80;99.90;;;;;;5046583;28;20596;-71
2023/08/23 11:49:23;;;;;;;3.40;1.33;;;24.90;99.90;;;;;;5049309;28;20056;-71
2023/08/23 11:51:50;;;;;;;3.75;1.20;;;25.10;99.90;;;;;;5066884;28;20503;-70
2023/08/23 11:54:17;;;;;;;3.70;1.50;;;25.20;99.90;;;;;;5030284;28;20041;-70
2023/08/23 11:56:44;;;;;;;2.10;0.88;;;25.30;99.90;;;;;;5044666;28;20154;-71
2023/08/23 11:59:11;;;;;;;3.38;1.17;;;25.40;99.90;;;;;;5045271;28;20261;-70
2023/08/23 12:01:39;;;;;;;5.15;1.40;;;25.40;99.90;;;;;;5060496;28;20502;-70
2023/08/23 12:04:08;;;;;;;3.63;1.10;;;25.30;99.90;;;;;;5028978;28;20036;-70
2023/08/23 12:06:34;;;;;;;2.35;1.42;;;25.30;99.90;;;;;;5046503;28;20032;-70
2023/08/23 12:09:00;;;;;;;5.35;1.10;;;25.20;99.90;;;;;;5043614;28;20256;-70
2023/08/23 12:11:25;;;;;;;3.00;1.10;;;25.10;99.90;;;;;;5046711;28;20405;-70
2023/08/23 12:13:51;;;;;;;2.72;1.20;;;25.00;99.90;;;;;;5051178;28;20492;-71
2023/08/23 12:16:17;;;;;;;2.92;1.13;;;25.00;99.90;;;;;;5044140;28;20090;-71
2023/08/23 12:18:46;;;;;;;4.63;1.25;;;24.90;99.90;;;;;;5043280;28;20051;-70
2023/08/23 12:21:12;;;;;;;9.77;2.17;;;24.80;99.90;;;;;;5046594;28;20347;-70
2023/08/23 12:23:37;;;;;;;4.15;0.90;;;24.80;99.90;;;;;;5061620;28;20111;-71
2023/08/23 12:26:03;;;;;;;4.60;1.17;;;24.90;99.90;;;;;;5061756;28;20116;-70
2023/08/23 12:28:29;;;;;;;4.63;1.63;;;25.00;99.90;;;;;;5044916;28;20110;-70
2023/08/23 12:30:55;;;;;;;2.47;0.80;;;24.90;99.90;;;;;;5047757;28;20044;-71
2023/08/23 12:33:21;;;;;;;7.93;1.08;;;24.90;99.90;;;;;;5066255;28;20035;-70
2023/08/23 12:35:47;;;;;;;2.78;1.00;;;25.00;99.90;;;;;;5047152;28;20406;-71
2023/08/23 12:38:12;;;;;;;3.85;1.02;;;25.10;99.90;;;;;;5066514;28;20127;-71
2023/08/23 12:40:38;;;;;;;2.30;0.77;;;25.10;99.90;;;;;;5031679;28;20040;-71
2023/08/23 12:43:04;;;;;;;5.07;1.10;;;25.20;99.90;;;;;;5050158;28;20045;-70